sensor_id;sensor_type;location;lat;lon;timestamp;pressure;altitude;pressure_sealevel;temperature;humidity
57859;BME280;49153;45.568;11.894;2023-02-14T00:01:16;103308.78;;;3.32;71.62
57859;BME280;49153;45.568;11.894;2023-02-14T00:03:41;103298.31;;;3.31;72.07
57859;BME280;49153;45.568;11.894;2023-02-14T00:06:13;103327.88;;;3.56;71.96
57859;BME280;49153;45.568;11.894;2023-02-14T00:08:39;103334.00;;;3.53;72.09
57859;BME280;49153;45.568;11.894;2023-02-14T00:11:06;103339.19;;;3.58;72.38
57859;BME280;49153;45.568;11.894;2023-02-14T00:13:33;103320.06;;;3.39;72.02
57859;BME280;49153;45.568;11.894;2023-02-14T00:15:58;103333.09;;;3.30;72.19
57859;BME280;49153;45.568;11.894;2023-02-14T00:18:24;103339.19;;;3.26;72.21
57859;BME280;49153;45.568;11.894;2023-02-14T00:21:09;103319.19;;;3.26;73.32
57859;BME280;49153;45.568;11.894;2023-02-14T00:23:35;103323.56;;;3.27;72.95
57859;BME280;49153;45.568;11.894;2023-02-14T00:26:00;103321.81;;;3.26;72.93
57859;BME280;49153;45.568;11.894;2023-02-14T00:28:25;103291.34;;;3.09;73.78
57859;BME280;49153;45.568;11.894;2023-02-14T00:30:55;103310.47;;;3.23;73.01
57859;BME280;49153;45.568;11.894;2023-02-14T00:33:21;103315.72;;;3.21;73.30
57859;BME280;49153;45.568;11.894;2023-02-14T00:35:46;103307.91;;;3.17;73.47
57859;BME280;49153;45.568;11.894;2023-02-14T00:38:12;103325.25;;;3.15;72.72
57859;BME280;49153;45.568;11.894;2023-02-14T00:40:37;103298.31;;;2.90;73.27
57859;BME280;49153;45.568;11.894;2023-02-14T00:43:02;103288.72;;;2.78;73.50
57859;BME280;49153;45.568;11.894;2023-02-14T00:45:29;103293.91;;;2.72;73.08
57859;BME280;49153;45.568;11.894;2023-02-14T00:47:54;103308.63;;;2.60;73.86
57859;BME280;49153;45.568;11.894;2023-02-14T00:50:20;103298.16;;;2.44;74.04
57859;BME280;49153;45.568;11.894;2023-02-14T00:52:45;103312.06;;;2.46;73.71
57859;BME280;49153;45.568;11.894;2023-02-14T00:55:10;103306.81;;;2.37;74.63
57859;BME280;49153;45.568;11.894;2023-02-14T00:57:36;103305.94;;;2.40;74.25
57859;BME280;49153;45.568;11.894;2023-02-14T01:00:02;103315.53;;;2.45;74.84
57859;BME280;49153;45.568;11.894;2023-02-14T01:02:27;103315.53;;;2.42;74.34
57859;BME280;49153;45.568;11.894;2023-02-14T01:04:53;103292.84;;;2.23;75.01
57859;BME280;49153;45.568;11.894;2023-02-14T01:07:18;103305.94;;;2.31;75.58
57859;BME280;49153;45.568;11.894;2023-02-14T01:09:46;103292.84;;;2.20;75.04
57859;BME280;49153;45.568;11.894;2023-02-14T01:12:11;103306.81;;;2.39;75.51
57859;BME280;49153;45.568;11.894;2023-02-14T01:14:37;103274.69;;;2.32;75.56
57859;BME280;49153;45.568;11.894;2023-02-14T01:17:02;103269.47;;;2.34;75.82
57859;BME280;49153;45.568;11.894;2023-02-14T01:19:27;103275.56;;;2.37;75.40
57859;BME280;49153;45.568;11.894;2023-02-14T01:21:53;103284.25;;;2.38;75.60
57859;BME280;49153;45.568;11.894;2023-02-14T01:24:18;103270.34;;;2.34;75.30
57859;BME280;49153;45.568;11.894;2023-02-14T01:26:44;103308.56;;;2.41;76.32
57859;BME280;49153;45.568;11.894;2023-02-14T01:29:09;103264.19;;;2.16;75.50
57859;BME280;49153;45.568;11.894;2023-02-14T01:31:35;103302.44;;;2.30;76.63
57859;BME280;49153;45.568;11.894;2023-02-14T01:34:02;103294.59;;;2.21;76.13
57859;BME280;49153;45.568;11.894;2023-02-14T01:38:58;103292.84;;;2.23;76.33
57859;BME280;49153;45.568;11.894;2023-02-14T01:41:26;103291.13;;;2.21;77.36
57859;BME280;49153;45.568;11.894;2023-02-14T01:44:00;103273.78;;;2.21;76.87
57859;BME280;49153;45.568;11.894;2023-02-14T01:46:28;103279.03;;;2.35;77.24
57859;BME280;49153;45.568;11.894;2023-02-14T01:48:58;103234.69;;;2.23;77.43
57859;BME280;49153;45.568;11.894;2023-02-14T01:51:25;103255.59;;;2.35;76.65
57859;BME280;49153;45.568;11.894;2023-02-14T01:53:51;103267.72;;;2.30;77.28
57859;BME280;49153;45.568;11.894;2023-02-14T01:56:23;103249.47;;;2.28;77.52
57859;BME280;49153;45.568;11.894;2023-02-14T01:58:52;103252.97;;;2.35;76.87
57859;BME280;49153;45.568;11.894;2023-02-14T02:01:19;103250.38;;;2.35;76.98
57859;BME280;49153;45.568;11.894;2023-02-14T02:03:50;103250.41;;;2.38;77.51
57859;BME280;49153;45.568;11.894;2023-02-14T02:06:22;103219.09;;;2.20;77.02
57859;BME280;49153;45.568;11.894;2023-02-14T02:08:58;103259.09;;;2.43;77.51
57859;BME280;49153;45.568;11.894;2023-02-14T02:11:25;103240.84;;;2.32;77.08
57859;BME280;49153;45.568;11.894;2023-02-14T02:13:51;103265.16;;;2.42;77.22
57859;BME280;49153;45.568;11.894;2023-02-14T02:19:03;103264.28;;;2.32;76.82
57859;BME280;49153;45.568;11.894;2023-02-14T02:21:48;103254.72;;;2.36;76.89
57859;BME280;49153;45.568;11.894;2023-02-14T02:27:18;103249.50;;;2.33;76.51
57859;BME280;49153;45.568;11.894;2023-02-14T02:49:32;103225.88;;;1.86;77.20
57859;BME280;49153;45.568;11.894;2023-02-14T02:52:30;103246.75;;;1.96;76.80
57859;BME280;49153;45.568;11.894;2023-02-14T02:55:29;103245.91;;;2.00;76.42
57859;BME280;49153;45.568;11.894;2023-02-14T02:58:17;103214.56;;;1.73;76.66
57859;BME280;49153;45.568;11.894;2023-02-14T03:00:45;103234.56;;;1.85;76.41
57859;BME280;49153;45.568;11.894;2023-02-14T03:03:12;103237.16;;;1.88;76.69
57859;BME280;49153;45.568;11.894;2023-02-14T03:05:56;103221.47;;;1.71;76.89
57859;BME280;49153;45.568;11.894;2023-02-14T03:08:22;103220.59;;;1.69;77.46
57859;BME280;49153;45.568;11.894;2023-02-14T03:10:48;103216.22;;;1.62;77.80
57859;BME280;49153;45.568;11.894;2023-02-14T03:13:53;103253.63;;;1.82;77.21
57859;BME280;49153;45.568;11.894;2023-02-14T03:16:43;103263.94;;;1.70;77.71
57859;BME280;49153;45.568;11.894;2023-02-14T03:31:24;103263.63;;;1.27;79.09
57859;BME280;49153;45.568;11.894;2023-02-14T03:34:00;103274.09;;;1.32;78.88
57859;BME280;49153;45.568;11.894;2023-02-14T03:36:39;103276.66;;;1.29;79.52
57859;BME280;49153;45.568;11.894;2023-02-14T03:39:20;103277.41;;;1.14;80.10
57859;BME280;49153;45.568;11.894;2023-02-14T03:41:56;103274.66;;;0.98;81.58
57859;BME280;49153;45.568;11.894;2023-02-14T03:44:25;103287.69;;;0.99;83.85
57859;BME280;49153;45.568;11.894;2023-02-14T03:46:58;103256.19;;;0.69;84.76
57859;BME280;49153;45.568;11.894;2023-02-14T03:49:28;103295.34;;;0.87;83.93
57859;BME280;49153;45.568;11.894;2023-02-14T03:51:56;103278.91;;;0.88;83.41
57859;BME280;49153;45.568;11.894;2023-02-14T03:54:25;103246.69;;;0.71;83.77
57859;BME280;49153;45.568;11.894;2023-02-14T03:57:12;103294.56;;;0.97;82.96
57859;BME280;49153;45.568;11.894;2023-02-14T03:59:40;103271.97;;;0.87;82.54
57859;BME280;49153;45.568;11.894;2023-02-14T04:04:42;103279.13;;;1.11;82.61
57859;BME280;49153;45.568;11.894;2023-02-14T04:07:16;103256.50;;;1.02;81.70
57859;BME280;49153;45.568;11.894;2023-02-14T04:09:43;103279.22;;;1.24;82.06
57859;BME280;49153;45.568;11.894;2023-02-14T04:12:08;103275.72;;;1.22;81.57
57859;BME280;49153;45.568;11.894;2023-02-14T04:14:34;103266.22;;;1.23;81.55
57859;BME280;49153;45.568;11.894;2023-02-14T04:17:00;103268.94;;;1.37;81.46
57859;BME280;49153;45.568;11.894;2023-02-14T04:19:44;103262.00;;;1.39;81.27
57859;BME280;49153;45.568;11.894;2023-02-14T04:22:10;103271.59;;;1.49;81.04
57859;BME280;49153;45.568;11.894;2023-02-14T04:24:35;103243.75;;;1.34;80.98
57859;BME280;49153;45.568;11.894;2023-02-14T04:27:00;103268.19;;;1.53;81.42
57859;BME280;49153;45.568;11.894;2023-02-14T04:29:46;103261.25;;;1.53;81.48
57859;BME280;49153;45.568;11.894;2023-02-14T04:32:15;103265.56;;;1.54;80.37
57859;BME280;49153;45.568;11.894;2023-02-14T04:34:42;103266.44;;;1.52;81.00
57859;BME280;49153;45.568;11.894;2023-02-14T04:37:08;103262.91;;;1.44;80.15
57859;BME280;49153;45.568;11.894;2023-02-14T04:39:34;103253.34;;;1.40;80.66
57859;BME280;49153;45.568;11.894;2023-02-14T04:42:00;103241.97;;;1.25;79.81
57859;BME280;49153;45.568;11.894;2023-02-14T04:44:25;103264.53;;;1.30;80.43
57859;BME280;49153;45.568;11.894;2023-02-14T04:46:51;103262.88;;;1.36;80.29
57859;BME280;49153;45.568;11.894;2023-02-14T04:49:16;103240.25;;;1.27;79.89
57859;BME280;49153;45.568;11.894;2023-02-14T04:51:43;103242.91;;;1.34;80.06
57859;BME280;49153;45.568;11.894;2023-02-14T04:54:08;103241.13;;;1.26;79.06
57859;BME280;49153;45.568;11.894;2023-02-14T04:56:34;103236.75;;;1.24;79.54
57859;BME280;49153;45.568;11.894;2023-02-14T04:59:00;103239.34;;;1.21;79.83
57859;BME280;49153;45.568;11.894;2023-02-14T05:01:26;103238.38;;;1.10;80.25
57859;BME280;49153;45.568;11.894;2023-02-14T05:03:52;103236.72;;;1.18;79.74
57859;BME280;49153;45.568;11.894;2023-02-14T05:06:17;103228.13;;;1.25;79.95
57859;BME280;49153;45.568;11.894;2023-02-14T05:08:43;103200.22;;;1.04;79.48
57859;BME280;49153;45.568;11.894;2023-02-14T05:11:09;103237.59;;;1.18;79.50
57859;BME280;49153;45.568;11.894;2023-02-14T05:13:34;103225.38;;;1.05;79.91
57859;BME280;49153;45.568;11.894;2023-02-14T05:16:00;103236.72;;;1.19;80.26
57859;BME280;49153;45.568;11.894;2023-02-14T05:18:25;103216.69;;;1.05;80.09
57859;BME280;49153;45.568;11.894;2023-02-14T05:20:53;103234.94;;;1.11;79.78
57859;BME280;49153;45.568;11.894;2023-02-14T05:23:25;103247.09;;;1.15;80.37
57859;BME280;49153;45.568;11.894;2023-02-14T05:25:52;103230.56;;;1.08;80.37
57859;BME280;49153;45.568;11.894;2023-02-14T05:28:24;103206.22;;;0.94;79.79
57859;BME280;49153;45.568;11.894;2023-02-14T05:30:53;103242.78;;;1.18;79.97
57859;BME280;49153;45.568;11.894;2023-02-14T05:33:21;103221.09;;;1.13;80.08
57859;BME280;49153;45.568;11.894;2023-02-14T05:35:47;103235.03;;;1.24;80.03
57859;BME280;49153;45.568;11.894;2023-02-14T05:38:13;103208.91;;;1.08;79.50
57859;BME280;49153;45.568;11.894;2023-02-14T05:40:40;103232.31;;;1.09;79.50
57859;BME280;49153;45.568;11.894;2023-02-14T05:43:07;103235.72;;;1.02;79.06
57859;BME280;49153;45.568;11.894;2023-02-14T05:45:47;103232.97;;;0.84;79.13
57859;BME280;49153;45.568;11.894;2023-02-14T05:48:32;103224.94;;;0.60;79.71
57859;BME280;49153;45.568;11.894;2023-02-14T05:51:06;103202.25;;;0.40;79.68
57859;BME280;49153;45.568;11.894;2023-02-14T05:53:32;103210.88;;;0.39;79.71
57859;BME280;49153;45.568;11.894;2023-02-14T05:55:59;103221.31;;;0.44;79.49
57859;BME280;49153;45.568;11.894;2023-02-14T05:58:26;103242.19;;;0.55;79.87
57859;BME280;49153;45.568;11.894;2023-02-14T06:00:52;103230.84;;;0.45;79.76
57859;BME280;49153;45.568;11.894;2023-02-14T06:03:17;103244.81;;;0.56;79.91
57859;BME280;49153;45.568;11.894;2023-02-14T06:05:43;103209.19;;;0.41;79.83
57859;BME280;49153;45.568;11.894;2023-02-14T06:08:10;103242.25;;;0.58;80.01
57859;BME280;49153;45.568;11.894;2023-02-14T06:10:36;103233.53;;;0.53;79.71
57859;BME280;49153;45.568;11.894;2023-02-14T06:13:02;103242.25;;;0.58;79.86
57859;BME280;49153;45.568;11.894;2023-02-14T06:15:27;103247.47;;;0.62;79.63
57859;BME280;49153;45.568;11.894;2023-02-14T06:17:56;103229.97;;;0.45;79.43
57859;BME280;49153;45.568;11.894;2023-02-14T06:20:23;103259.53;;;0.57;79.42
57859;BME280;49153;45.568;11.894;2023-02-14T06:22:49;103253.44;;;0.52;79.69
57859;BME280;49153;45.568;11.894;2023-02-14T06:25:15;103256.81;;;0.45;79.84
57859;BME280;49153;45.568;11.894;2023-02-14T06:27:41;103257.69;;;0.46;79.66
57859;BME280;49153;45.568;11.894;2023-02-14T06:30:09;103249.97;;;0.52;80.47
57859;BME280;49153;45.568;11.894;2023-02-14T06:32:38;103263.00;;;0.59;80.28
57859;BME280;49153;45.568;11.894;2023-02-14T06:35:05;103255.16;;;0.52;79.94
57859;BME280;49153;45.568;11.894;2023-02-14T06:37:31;103250.72;;;0.41;80.24
57859;BME280;49153;45.568;11.894;2023-02-14T06:39:57;103243.78;;;0.43;80.06
57859;BME280;49153;45.568;11.894;2023-02-14T06:42:22;103263.84;;;0.58;80.06
57859;BME280;49153;45.568;11.894;2023-02-14T06:44:48;103260.41;;;0.59;80.57
57859;BME280;49153;45.568;11.894;2023-02-14T06:47:13;103224.84;;;0.51;80.66
57859;BME280;49153;45.568;11.894;2023-02-14T06:49:39;103265.81;;;0.77;80.84
57859;BME280;49153;45.568;11.894;2023-02-14T06:52:05;103271.88;;;0.78;80.16
57859;BME280;49153;45.568;11.894;2023-02-14T06:54:30;103246.41;;;0.43;80.12
57859;BME280;49153;45.568;11.894;2023-02-14T06:56:56;103272.47;;;0.53;80.66
57859;BME280;49153;45.568;11.894;2023-02-14T06:59:21;103279.41;;;0.52;80.53
57859;BME280;49153;45.568;11.894;2023-02-14T07:01:47;103279.41;;;0.55;80.58
57859;BME280;49153;45.568;11.894;2023-02-14T07:04:12;103284.72;;;0.63;80.79
57859;BME280;49153;45.568;11.894;2023-02-14T07:06:39;103276.06;;;0.65;81.05
57859;BME280;49153;45.568;11.894;2023-02-14T07:09:05;103271.72;;;0.63;81.16
57859;BME280;49153;45.568;11.894;2023-02-14T07:11:31;103280.50;;;0.75;81.44
57859;BME280;49153;45.568;11.894;2023-02-14T07:13:56;103261.25;;;0.57;81.34
57859;BME280;49153;45.568;11.894;2023-02-14T07:16:22;103289.16;;;0.73;81.71
57859;BME280;49153;45.568;11.894;2023-02-14T07:18:48;103275.31;;;0.74;81.47
57859;BME280;49153;45.568;11.894;2023-02-14T07:21:14;103287.53;;;0.84;82.00
57859;BME280;49153;45.568;11.894;2023-02-14T07:23:40;103271.03;;;0.80;81.68
57859;BME280;49153;45.568;11.894;2023-02-14T07:26:08;103292.03;;;1.00;82.59
57859;BME280;49153;45.568;11.894;2023-02-14T07:28:36;103288.59;;;1.07;82.31
57859;BME280;49153;45.568;11.894;2023-02-14T07:31:03;103271.22;;;0.99;82.27
57859;BME280;49153;45.568;11.894;2023-02-14T07:33:28;103305.25;;;1.26;82.92
57859;BME280;49153;45.568;11.894;2023-02-14T07:35:54;103280.09;;;1.23;83.35
57859;BME280;49153;45.568;11.894;2023-02-14T07:38:19;103282.75;;;1.33;83.32
57859;BME280;49153;45.568;11.894;2023-02-14T07:40:45;103294.19;;;1.51;83.57
57859;BME280;49153;45.568;11.894;2023-02-14T07:43:10;103290.84;;;1.69;83.50
57859;BME280;49153;45.568;11.894;2023-02-14T07:45:36;103287.44;;;1.79;84.18
57859;BME280;49153;45.568;11.894;2023-02-14T07:48:01;103279.69;;;1.91;84.08
57859;BME280;49153;45.568;11.894;2023-02-14T07:50:27;103262.38;;;1.95;84.40
57859;BME280;49153;45.568;11.894;2023-02-14T07:52:53;103258.97;;;2.09;84.62
57859;BME280;49153;45.568;11.894;2023-02-14T07:55:19;103282.50;;;2.35;84.38
57859;BME280;49153;45.568;11.894;2023-02-14T07:57:48;103275.59;;;2.51;85.02
57859;BME280;49153;45.568;11.894;2023-02-14T08:00:14;103273.91;;;2.62;84.83
57859;BME280;49153;45.568;11.894;2023-02-14T08:02:40;103258.28;;;2.71;84.68
57859;BME280;49153;45.568;11.894;2023-02-14T08:05:06;103246.13;;;2.78;85.53
57859;BME280;49153;45.568;11.894;2023-02-14T08:07:32;103247.88;;;2.91;85.18
57859;BME280;49153;45.568;11.894;2023-02-14T08:09:57;103272.22;;;3.17;85.27
57859;BME280;49153;45.568;11.894;2023-02-14T08:12:23;103255.75;;;3.17;85.08
57859;BME280;49153;45.568;11.894;2023-02-14T08:15:07;103244.41;;;3.25;84.99
57859;BME280;49153;45.568;11.894;2023-02-14T08:17:51;103256.56;;;3.45;85.30
57859;BME280;49153;45.568;11.894;2023-02-14T08:20:17;103266.09;;;3.65;84.81
57859;BME280;49153;45.568;11.894;2023-02-14T08:22:42;103265.22;;;3.72;84.96
57859;BME280;49153;45.568;11.894;2023-02-14T08:25:08;103227.84;;;3.61;84.96
57859;BME280;49153;45.568;11.894;2023-02-14T08:27:33;103264.31;;;3.95;84.88
57859;BME280;49153;45.568;11.894;2023-02-14T08:29:59;103258.19;;;4.05;85.07
57859;BME280;49153;45.568;11.894;2023-02-14T08:32:24;103260.69;;;4.29;85.00
57859;BME280;49153;45.568;11.894;2023-02-14T08:34:49;103242.38;;;4.34;84.93
57859;BME280;49153;45.568;11.894;2023-02-14T08:37:15;103242.31;;;4.47;84.74
57859;BME280;49153;45.568;11.894;2023-02-14T08:39:41;103233.56;;;4.54;84.24
57859;BME280;49153;45.568;11.894;2023-02-14T08:42:06;103236.09;;;4.70;84.12
57859;BME280;49153;45.568;11.894;2023-02-14T08:44:32;103235.06;;;4.87;84.27
57859;BME280;49153;45.568;11.894;2023-02-14T08:46:57;103227.16;;;4.96;84.27
57859;BME280;49153;45.568;11.894;2023-02-14T08:49:23;103246.09;;;5.27;83.68
57859;BME280;49153;45.568;11.894;2023-02-14T08:51:48;103249.44;;;5.40;82.69
57859;BME280;49153;45.568;11.894;2023-02-14T08:54:15;103246.75;;;5.49;83.12
57859;BME280;49153;45.568;11.894;2023-02-14T08:56:41;103251.84;;;5.63;82.41
57859;BME280;49153;45.568;11.894;2023-02-14T08:59:07;103234.44;;;5.60;82.12
57859;BME280;49153;45.568;11.894;2023-02-14T09:01:33;103258.63;;;5.82;82.10
57859;BME280;49153;45.568;11.894;2023-02-14T09:04:00;103224.53;;;5.88;82.08
57859;BME280;49153;45.568;11.894;2023-02-14T09:06:26;103220.91;;;5.98;81.88
57859;BME280;49153;45.568;11.894;2023-02-14T09:08:52;103208.66;;;6.02;81.55
57859;BME280;49153;45.568;11.894;2023-02-14T09:11:21;103236.16;;;6.34;81.68
57859;BME280;49153;45.568;11.894;2023-02-14T09:13:47;103223.94;;;6.35;80.87
57859;BME280;49153;45.568;11.894;2023-02-14T09:16:14;103228.94;;;6.52;80.38
57859;BME280;49153;45.568;11.894;2023-02-14T09:18:42;103245.25;;;6.72;80.43
57859;BME280;49153;45.568;11.894;2023-02-14T09:21:12;103240.69;;;6.86;79.92
57859;BME280;49153;45.568;11.894;2023-02-14T09:23:38;103221.38;;;6.90;79.58
57859;BME280;49153;45.568;11.894;2023-02-14T09:26:06;103215.97;;;6.99;78.95
57859;BME280;49153;45.568;11.894;2023-02-14T09:28:33;103214.03;;;7.10;78.80
57859;BME280;49153;45.568;11.894;2023-02-14T09:31:08;103228.53;;;7.31;78.86
57859;BME280;49153;45.568;11.894;2023-02-14T09:33:34;103217.75;;;7.46;78.21
57859;BME280;49153;45.568;11.894;2023-02-14T09:36:00;103214.81;;;7.63;79.01
57859;BME280;49153;45.568;11.894;2023-02-14T09:38:44;103225.00;;;7.80;77.39
57859;BME280;49153;45.568;11.894;2023-02-14T09:46:19;103209.44;;;8.14;76.76
57859;BME280;49153;45.568;11.894;2023-02-14T09:48:46;103209.06;;;8.32;76.92
57859;BME280;49153;45.568;11.894;2023-02-14T09:51:20;103207.81;;;8.48;75.62
57859;BME280;49153;45.568;11.894;2023-02-14T09:53:55;103193.69;;;8.52;74.39
57859;BME280;49153;45.568;11.894;2023-02-14T09:56:31;103205.56;;;8.70;75.00
57859;BME280;49153;45.568;11.894;2023-02-14T09:59:32;103196.34;;;8.87;74.67
57859;BME280;49153;45.568;11.894;2023-02-14T10:01:58;103204.75;;;9.02;73.49
57859;BME280;49153;45.568;11.894;2023-02-14T10:04:37;103207.09;;;9.14;73.65
57859;BME280;49153;45.568;11.894;2023-02-14T10:07:27;103198.78;;;9.29;72.64
57859;BME280;49153;45.568;11.894;2023-02-14T10:10:10;103198.28;;;9.47;72.49
57859;BME280;49153;45.568;11.894;2023-02-14T10:12:42;103183.91;;;9.59;70.56
57859;BME280;49153;45.568;11.894;2023-02-14T10:15:32;103179.50;;;9.61;70.40
57859;BME280;49153;45.568;11.894;2023-02-14T10:18:24;103172.06;;;9.73;70.08
57859;BME280;49153;45.568;11.894;2023-02-14T10:21:12;103173.28;;;9.93;70.41
57859;BME280;49153;45.568;11.894;2023-02-14T10:23:44;103172.00;;;10.06;69.46
57859;BME280;49153;45.568;11.894;2023-02-14T10:26:41;103167.00;;;10.26;69.69
57859;BME280;49153;45.568;11.894;2023-02-14T10:29:12;103167.38;;;10.43;67.27
57859;BME280;49153;45.568;11.894;2023-02-14T10:31:59;103170.53;;;10.54;67.10
57859;BME280;49153;45.568;11.894;2023-02-14T10:40:11;103153.28;;;10.97;64.81
57859;BME280;49153;45.568;11.894;2023-02-14T10:43:20;103144.13;;;11.07;63.56
57859;BME280;49153;45.568;11.894;2023-02-14T10:46:14;103138.41;;;11.19;63.55
57859;BME280;49153;45.568;11.894;2023-02-14T10:48:58;103124.78;;;11.31;63.50
57859;BME280;49153;45.568;11.894;2023-02-14T10:51:32;103118.94;;;11.47;60.88
57859;BME280;49153;45.568;11.894;2023-02-14T10:56:35;103104.63;;;11.52;60.77
57859;BME280;49153;45.568;11.894;2023-02-14T11:01:50;103077.59;;;11.67;60.50
57859;BME280;49153;45.568;11.894;2023-02-14T11:04:18;103077.16;;;11.79;60.05
57859;BME280;49153;45.568;11.894;2023-02-14T11:06:44;103081.88;;;11.95;60.68
57859;BME280;49153;45.568;11.894;2023-02-14T11:09:13;103083.13;;;12.06;59.88
57859;BME280;49153;45.568;11.894;2023-02-14T11:11:55;103083.66;;;12.16;60.01
57859;BME280;49153;45.568;11.894;2023-02-14T11:16:47;103068.56;;;12.40;58.65
57859;BME280;49153;45.568;11.894;2023-02-14T11:19:33;103064.84;;;12.44;58.25
57859;BME280;49153;45.568;11.894;2023-02-14T11:22:00;103059.84;;;12.58;59.15
57859;BME280;49153;45.568;11.894;2023-02-14T11:26:54;103051.75;;;12.81;57.91
57859;BME280;49153;45.568;11.894;2023-02-14T11:29:49;103030.94;;;12.74;57.20
57859;BME280;49153;45.568;11.894;2023-02-14T11:39:51;103019.28;;;13.17;56.61
57859;BME280;49153;45.568;11.894;2023-02-14T11:45:46;103025.13;;;13.43;54.87
57859;BME280;49153;45.568;11.894;2023-02-14T11:51:11;103008.63;;;13.56;55.11
57859;BME280;49153;45.568;11.894;2023-02-14T11:53:47;103023.13;;;13.67;55.00
57859;BME280;49153;45.568;11.894;2023-02-14T11:56:22;103007.28;;;13.66;54.76
57859;BME280;49153;45.568;11.894;2023-02-14T11:59:00;103019.09;;;13.77;53.14
57859;BME280;49153;45.568;11.894;2023-02-14T12:01:34;102996.44;;;13.70;54.11
57859;BME280;49153;45.568;11.894;2023-02-14T12:04:06;103018.28;;;13.94;53.23
57859;BME280;49153;45.568;11.894;2023-02-14T12:06:38;103011.81;;;14.00;53.38
57859;BME280;49153;45.568;11.894;2023-02-14T12:11:59;102986.84;;;14.04;52.43
57859;BME280;49153;45.568;11.894;2023-02-14T12:14:30;102970.06;;;14.03;52.39
57859;BME280;49153;45.568;11.894;2023-02-14T12:17:11;102965.91;;;13.98;52.59
57859;BME280;49153;45.568;11.894;2023-02-14T12:22:44;102974.84;;;14.31;52.89
57859;BME280;49153;45.568;11.894;2023-02-14T12:25:21;102960.41;;;14.36;52.81
57859;BME280;49153;45.568;11.894;2023-02-14T12:28:08;102960.81;;;14.46;51.89
57859;BME280;49153;45.568;11.894;2023-02-14T12:30:36;102957.03;;;14.50;52.68
57859;BME280;49153;45.568;11.894;2023-02-14T12:33:01;102935.91;;;14.49;52.94
57859;BME280;49153;45.568;11.894;2023-02-14T12:38:51;102973.38;;;14.93;51.41
57859;BME280;49153;45.568;11.894;2023-02-14T12:47:50;102942.09;;;14.98;50.82
57859;BME280;49153;45.568;11.894;2023-02-14T12:53:57;102936.69;;;14.99;50.64
57859;BME280;49153;45.568;11.894;2023-02-14T13:02:51;102932.50;;;15.11;49.43
57859;BME280;49153;45.568;11.894;2023-02-14T13:05:48;102891.91;;;14.92;49.97
57859;BME280;49153;45.568;11.894;2023-02-14T13:20:25;102914.50;;;15.47;49.80
57859;BME280;49153;45.568;11.894;2023-02-14T13:22:56;102888.59;;;15.35;49.96
57859;BME280;49153;45.568;11.894;2023-02-14T13:25:45;102865.00;;;15.29;49.91
57859;BME280;49153;45.568;11.894;2023-02-14T13:28:15;102883.31;;;15.49;49.94
57859;BME280;49153;45.568;11.894;2023-02-14T13:30:46;102864.69;;;15.49;48.89
57859;BME280;49153;45.568;11.894;2023-02-14T13:33:20;102897.25;;;15.70;48.78
57859;BME280;49153;45.568;11.894;2023-02-14T13:35:53;102855.97;;;15.47;48.83
57859;BME280;49153;45.568;11.894;2023-02-14T13:38:23;102858.13;;;15.56;48.85
57859;BME280;49153;45.568;11.894;2023-02-14T13:40:55;102855.19;;;15.61;48.97
57859;BME280;49153;45.568;11.894;2023-02-14T13:43:47;102892.91;;;15.83;48.40
57859;BME280;49153;45.568;11.894;2023-02-14T13:46:18;102850.56;;;15.49;48.71
57859;BME280;49153;45.568;11.894;2023-02-14T13:48:55;102846.28;;;15.46;48.34
57859;BME280;49153;45.568;11.894;2023-02-14T13:51:44;102881.00;;;15.75;48.62
57859;BME280;49153;45.568;11.894;2023-02-14T13:56:51;102842.47;;;15.50;47.96
57859;BME280;49153;45.568;11.894;2023-02-14T13:59:30;102840.44;;;15.55;48.07
57859;BME280;49153;45.568;11.894;2023-02-14T14:04:51;102860.34;;;15.64;47.27
57859;BME280;49153;45.568;11.894;2023-02-14T14:07:22;102830.00;;;15.52;48.15
57859;BME280;49153;45.568;11.894;2023-02-14T14:10:02;102866.78;;;15.90;48.83
57859;BME280;49153;45.568;11.894;2023-02-14T14:17:30;102857.59;;;16.10;47.44
57859;BME280;49153;45.568;11.894;2023-02-14T14:19:59;102833.44;;;15.98;48.03
57859;BME280;49153;45.568;11.894;2023-02-14T14:22:26;102819.38;;;15.96;47.93
57859;BME280;49153;45.568;11.894;2023-02-14T14:24:56;102842.97;;;16.17;47.98
57859;BME280;49153;45.568;11.894;2023-02-14T14:27:39;102830.78;;;16.13;46.98
57859;BME280;49153;45.568;11.894;2023-02-14T14:30:15;102827.53;;;16.08;47.67
57859;BME280;49153;45.568;11.894;2023-02-14T14:32:42;102808.06;;;16.07;47.65
57859;BME280;49153;45.568;11.894;2023-02-14T14:35:23;102821.69;;;16.17;46.92
57859;BME280;49153;45.568;11.894;2023-02-14T14:37:55;102823.84;;;16.10;46.89
57859;BME280;49153;45.568;11.894;2023-02-14T14:40:33;102810.75;;;16.07;46.73
57859;BME280;49153;45.568;11.894;2023-02-14T14:45:48;102807.59;;;16.15;46.57
57859;BME280;49153;45.568;11.894;2023-02-14T14:48:21;102818.91;;;16.18;46.76
57859;BME280;49153;45.568;11.894;2023-02-14T14:50:49;102830.72;;;16.28;46.37
57859;BME280;49153;45.568;11.894;2023-02-14T14:53:51;102819.38;;;16.25;46.76
57859;BME280;49153;45.568;11.894;2023-02-14T14:56:26;102821.84;;;16.14;46.39
57859;BME280;49153;45.568;11.894;2023-02-14T14:58:53;102815.28;;;16.19;47.07
57859;BME280;49153;45.568;11.894;2023-02-14T15:01:35;102810.66;;;16.23;46.71
57859;BME280;49153;45.568;11.894;2023-02-14T15:04:16;102789.81;;;16.15;47.14
57859;BME280;49153;45.568;11.894;2023-02-14T15:06:42;102802.53;;;16.10;46.57
57859;BME280;49153;45.568;11.894;2023-02-14T15:09:29;102809.31;;;16.16;46.91
57859;BME280;49153;45.568;11.894;2023-02-14T15:11:56;102804.47;;;16.22;47.47
57859;BME280;49153;45.568;11.894;2023-02-14T15:14:44;102778.00;;;16.19;47.24